sensor_id;sensor_type;location;lat;lon;timestamp;temperature;humidity
39525;DHT22;25203;50.754;6.978;2023-08-12T00:01:32;20.70;99.90
39525;DHT22;25203;50.754;6.978;2023-08-12T00:03:33;20.70;99.90
39525;DHT22;25203;50.754;6.978;2023-08-12T00:05:34;20.70;99.90
39525;DHT22;25203;50.754;6.978;2023-08-12T00:07:36;20.70;99.90
39525;DHT22;25203;50.754;6.978;2023-08-12T00:09:36;20.60;99.90
39525;DHT22;25203;50.754;6.978;2023-08-12T00:11:38;20.60;99.90
39525;DHT22;25203;50.754;6.978;2023-08-12T00:13:38;20.60;99.90
39525;DHT22;25203;50.754;6.978;2023-08-12T00:15:39;20.50;99.90
39525;DHT22;25203;50.754;6.978;2023-08-12T00:17:41;20.50;99.90
39525;DHT22;25203;50.754;6.978;2023-08-12T00:19:41;20.50;99.90
39525;DHT22;25203;50.754;6.978;2023-08-12T00:21:42;20.50;99.90
39525;DHT22;25203;50.754;6.978;2023-08-12T00:23:43;20.50;99.90
39525;DHT22;25203;50.754;6.978;2023-08-12T00:25:44;20.50;99.90
39525;DHT22;25203;50.754;6.978;2023-08-12T00:27:45;20.50;99.90
39525;DHT22;25203;50.754;6.978;2023-08-12T00:29:45;20.50;99.90
39525;DHT22;25203;50.754;6.978;2023-08-12T00:31:46;20.50;99.90
39525;DHT22;25203;50.754;6.978;2023-08-12T00:33:47;20.50;99.90
39525;DHT22;25203;50.754;6.978;2023-08-12T00:35:47;20.50;99.90
39525;DHT22;25203;50.754;6.978;2023-08-12T00:37:48;20.50;99.90
39525;DHT22;25203;50.754;6.978;2023-08-12T00:39:48;20.50;99.90
39525;DHT22;25203;50.754;6.978;2023-08-12T00:41:49;20.50;99.90
39525;DHT22;25203;50.754;6.978;2023-08-12T00:43:50;20.40;99.90
39525;DHT22;25203;50.754;6.978;2023-08-12T00:45:50;20.40;99.90
39525;DHT22;25203;50.754;6.978;2023-08-12T00:47:51;20.40;99.90
39525;DHT22;25203;50.754;6.978;2023-08-12T00:49:51;20.40;99.90
39525;DHT22;25203;50.754;6.978;2023-08-12T00:51:52;20.40;99.90
39525;DHT22;25203;50.754;6.978;2023-08-12T00:53:54;20.40;99.90
39525;DHT22;25203;50.754;6.978;2023-08-12T00:55:57;20.40;99.90
39525;DHT22;25203;50.754;6.978;2023-08-12T00:57:58;20.40;99.90
39525;DHT22;25203;50.754;6.978;2023-08-12T00:59:59;20.40;99.90
39525;DHT22;25203;50.754;6.978;2023-08-12T01:01:59;20.30;99.90
39525;DHT22;25203;50.754;6.978;2023-08-12T01:04:00;20.40;99.90
39525;DHT22;25203;50.754;6.978;2023-08-12T01:06:02;20.40;99.90
39525;DHT22;25203;50.754;6.978;2023-08-12T01:08:03;20.40;99.90
39525;DHT22;25203;50.754;6.978;2023-08-12T01:10:04;20.40;99.90
39525;DHT22;25203;50.754;6.978;2023-08-12T01:16:59;20.40;99.90
39525;DHT22;25203;50.754;6.978;2023-08-12T01:19:05;20.40;99.90
39525;DHT22;25203;50.754;6.978;2023-08-12T01:21:08;20.40;99.90
39525;DHT22;25203;50.754;6.978;2023-08-12T01:23:16;20.40;99.90
39525;DHT22;25203;50.754;6.978;2023-08-12T01:25:16;20.30;99.90
39525;DHT22;25203;50.754;6.978;2023-08-12T01:27:17;20.30;99.90
39525;DHT22;25203;50.754;6.978;2023-08-12T01:29:18;20.30;99.90
39525;DHT22;25203;50.754;6.978;2023-08-12T01:31:26;20.20;99.90
39525;DHT22;25203;50.754;6.978;2023-08-12T01:33:39;20.20;99.90
39525;DHT22;25203;50.754;6.978;2023-08-12T01:35:58;20.20;99.90
39525;DHT22;25203;50.754;6.978;2023-08-12T01:38:03;20.10;99.90
39525;DHT22;25203;50.754;6.978;2023-08-12T01:40:05;20.10;99.90
39525;DHT22;25203;50.754;6.978;2023-08-12T01:42:07;20.10;99.90
39525;DHT22;25203;50.754;6.978;2023-08-12T01:44:08;20.10;99.90
39525;DHT22;25203;50.754;6.978;2023-08-12T01:46:09;20.10;99.90
39525;DHT22;25203;50.754;6.978;2023-08-12T01:48:10;20.10;99.90
39525;DHT22;25203;50.754;6.978;2023-08-12T01:50:11;20.00;99.90
39525;DHT22;25203;50.754;6.978;2023-08-12T01:52:12;20.00;99.90
39525;DHT22;25203;50.754;6.978;2023-08-12T01:54:12;20.00;99.90
39525;DHT22;25203;50.754;6.978;2023-08-12T01:56:13;20.00;99.90
39525;DHT22;25203;50.754;6.978;2023-08-12T01:58:13;20.00;99.90
39525;DHT22;25203;50.754;6.978;2023-08-12T02:00:15;20.00;99.90
39525;DHT22;25203;50.754;6.978;2023-08-12T02:02:16;20.00;99.90
39525;DHT22;25203;50.754;6.978;2023-08-12T02:04:16;19.90;99.90
39525;DHT22;25203;50.754;6.978;2023-08-12T02:06:17;19.90;99.90
39525;DHT22;25203;50.754;6.978;2023-08-12T02:08:18;19.90;99.90
39525;DHT22;25203;50.754;6.978;2023-08-12T02:10:19;19.90;99.90
39525;DHT22;25203;50.754;6.978;2023-08-12T02:12:19;19.90;99.90
39525;DHT22;25203;50.754;6.978;2023-08-12T02:14:20;19.90;99.90
39525;DHT22;25203;50.754;6.978;2023-08-12T02:16:20;19.80;99.90
39525;DHT22;25203;50.754;6.978;2023-08-12T02:18:21;19.80;99.90
39525;DHT22;25203;50.754;6.978;2023-08-12T02:20:22;19.80;99.90
39525;DHT22;25203;50.754;6.978;2023-08-12T02:22:22;19.80;99.90
39525;DHT22;25203;50.754;6.978;2023-08-12T02:24:23;19.90;99.90
39525;DHT22;25203;50.754;6.978;2023-08-12T02:26:24;19.80;99.90
39525;DHT22;25203;50.754;6.978;2023-08-12T02:28:24;19.80;99.90
39525;DHT22;25203;50.754;6.978;2023-08-12T02:30:25;19.80;99.90
39525;DHT22;25203;50.754;6.978;2023-08-12T02:32:25;19.80;99.90
39525;DHT22;25203;50.754;6.978;2023-08-12T02:34:26;19.80;99.90
39525;DHT22;25203;50.754;6.978;2023-08-12T02:36:27;19.80;99.90
39525;DHT22;25203;50.754;6.978;2023-08-12T02:38:27;19.80;99.90
39525;DHT22;25203;50.754;6.978;2023-08-12T02:40:28;19.80;99.90
39525;DHT22;25203;50.754;6.978;2023-08-12T02:42:28;19.80;99.90
39525;DHT22;25203;50.754;6.978;2023-08-12T02:44:29;19.80;99.90
39525;DHT22;25203;50.754;6.978;2023-08-12T02:46:30;19.80;99.90
39525;DHT22;25203;50.754;6.978;2023-08-12T02:48:30;19.80;99.90
39525;DHT22;25203;50.754;6.978;2023-08-12T02:50:31;19.80;99.90
39525;DHT22;25203;50.754;6.978;2023-08-12T02:52:32;19.80;99.90
39525;DHT22;25203;50.754;6.978;2023-08-12T02:54:32;19.70;99.90
39525;DHT22;25203;50.754;6.978;2023-08-12T02:56:33;19.70;99.90
39525;DHT22;25203;50.754;6.978;2023-08-12T02:58:33;19.80;99.90
39525;DHT22;25203;50.754;6.978;2023-08-12T03:00:34;19.70;99.90
39525;DHT22;25203;50.754;6.978;2023-08-12T03:02:35;19.70;99.90
39525;DHT22;25203;50.754;6.978;2023-08-12T03:04:35;19.70;99.90
39525;DHT22;25203;50.754;6.978;2023-08-12T03:06:36;19.70;99.90
39525;DHT22;25203;50.754;6.978;2023-08-12T03:08:37;19.70;99.90
39525;DHT22;25203;50.754;6.978;2023-08-12T03:10:38;19.70;99.90
39525;DHT22;25203;50.754;6.978;2023-08-12T03:12:38;19.70;99.90
39525;DHT22;25203;50.754;6.978;2023-08-12T03:14:39;19.70;99.90
39525;DHT22;25203;50.754;6.978;2023-08-12T03:16:40;19.60;99.90
39525;DHT22;25203;50.754;6.978;2023-08-12T03:18:40;19.60;99.90
39525;DHT22;25203;50.754;6.978;2023-08-12T03:20:41;19.60;99.90
39525;DHT22;25203;50.754;6.978;2023-08-12T03:22:42;19.60;99.90
39525;DHT22;25203;50.754;6.978;2023-08-12T03:24:42;19.60;99.90
39525;DHT22;25203;50.754;6.978;2023-08-12T03:26:43;19.50;99.90
39525;DHT22;25203;50.754;6.978;2023-08-12T03:28:44;19.50;99.90
39525;DHT22;25203;50.754;6.978;2023-08-12T03:30:51;19.50;99.90
39525;DHT22;25203;50.754;6.978;2023-08-12T03:32:52;19.50;99.90
39525;DHT22;25203;50.754;6.978;2023-08-12T03:34:53;19.50;99.90
39525;DHT22;25203;50.754;6.978;2023-08-12T03:36:54;19.50;99.90
39525;DHT22;25203;50.754;6.978;2023-08-12T03:38:54;19.50;99.90
39525;DHT22;25203;50.754;6.978;2023-08-12T03:40:55;19.50;99.90
39525;DHT22;25203;50.754;6.978;2023-08-12T03:42:56;19.50;99.90
39525;DHT22;25203;50.754;6.978;2023-08-12T03:44:56;19.50;99.90
39525;DHT22;25203;50.754;6.978;2023-08-12T03:46:57;19.50;99.90
39525;DHT22;25203;50.754;6.978;2023-08-12T03:48:57;19.50;99.90
39525;DHT22;25203;50.754;6.978;2023-08-12T03:50:58;19.50;99.90
39525;DHT22;25203;50.754;6.978;2023-08-12T03:52:58;19.50;99.90
39525;DHT22;25203;50.754;6.978;2023-08-12T03:54:59;19.50;99.90
39525;DHT22;25203;50.754;6.978;2023-08-12T03:57:00;19.40;99.90
39525;DHT22;25203;50.754;6.978;2023-08-12T03:59:00;19.40;99.90
39525;DHT22;25203;50.754;6.978;2023-08-12T04:01:01;19.40;99.90
39525;DHT22;25203;50.754;6.978;2023-08-12T04:03:02;19.40;99.90
39525;DHT22;25203;50.754;6.978;2023-08-12T04:05:03;19.40;99.90
39525;DHT22;25203;50.754;6.978;2023-08-12T04:07:03;19.40;99.90
39525;DHT22;25203;50.754;6.978;2023-08-12T04:09:04;19.40;99.90
39525;DHT22;25203;50.754;6.978;2023-08-12T04:11:05;19.40;99.90
39525;DHT22;25203;50.754;6.978;2023-08-12T04:13:06;19.30;99.90
39525;DHT22;25203;50.754;6.978;2023-08-12T04:15:07;19.30;99.90
39525;DHT22;25203;50.754;6.978;2023-08-12T04:17:08;19.30;99.90
39525;DHT22;25203;50.754;6.978;2023-08-12T04:19:08;19.30;99.90
39525;DHT22;25203;50.754;6.978;2023-08-12T04:21:09;19.30;99.90
39525;DHT22;25203;50.754;6.978;2023-08-12T04:23:09;19.30;99.90
39525;DHT22;25203;50.754;6.978;2023-08-12T04:25:10;19.30;99.90
39525;DHT22;25203;50.754;6.978;2023-08-12T04:27:11;19.30;99.90
39525;DHT22;25203;50.754;6.978;2023-08-12T04:29:11;19.30;99.90
39525;DHT22;25203;50.754;6.978;2023-08-12T04:31:12;19.30;99.90
39525;DHT22;25203;50.754;6.978;2023-08-12T04:33:13;19.30;99.90
39525;DHT22;25203;50.754;6.978;2023-08-12T04:35:14;19.30;99.90
39525;DHT22;25203;50.754;6.978;2023-08-12T04:37:14;19.30;99.90
39525;DHT22;25203;50.754;6.978;2023-08-12T04:39:16;19.20;99.90
39525;DHT22;25203;50.754;6.978;2023-08-12T04:41:16;19.20;99.90
39525;DHT22;25203;50.754;6.978;2023-08-12T04:43:18;19.20;99.90
39525;DHT22;25203;50.754;6.978;2023-08-12T04:45:19;19.20;99.90
39525;DHT22;25203;50.754;6.978;2023-08-12T04:47:20;19.20;99.90
39525;DHT22;25203;50.754;6.978;2023-08-12T04:49:20;19.20;99.90
39525;DHT22;25203;50.754;6.978;2023-08-12T04:51:23;19.20;99.90
39525;DHT22;25203;50.754;6.978;2023-08-12T04:53:24;19.20;99.90
39525;DHT22;25203;50.754;6.978;2023-08-12T04:55:25;19.30;99.90
39525;DHT22;25203;50.754;6.978;2023-08-12T04:57:27;19.30;99.90
39525;DHT22;25203;50.754;6.978;2023-08-12T04:59:28;19.40;99.90
39525;DHT22;25203;50.754;6.978;2023-08-12T05:01:28;19.40;99.90
39525;DHT22;25203;50.754;6.978;2023-08-12T05:03:29;19.50;99.90
39525;DHT22;25203;50.754;6.978;2023-08-12T05:05:29;19.50;99.90
39525;DHT22;25203;50.754;6.978;2023-08-12T05:07:30;19.50;99.90
39525;DHT22;25203;50.754;6.978;2023-08-12T05:09:31;19.60;99.90
39525;DHT22;25203;50.754;6.978;2023-08-12T05:11:32;19.70;99.90
39525;DHT22;25203;50.754;6.978;2023-08-12T05:13:33;19.70;99.90
39525;DHT22;25203;50.754;6.978;2023-08-12T05:15:33;19.80;99.90
39525;DHT22;25203;50.754;6.978;2023-08-12T05:17:37;19.90;99.90
39525;DHT22;25203;50.754;6.978;2023-08-12T05:19:38;19.90;99.90
39525;DHT22;25203;50.754;6.978;2023-08-12T05:21:38;20.00;99.90
39525;DHT22;25203;50.754;6.978;2023-08-12T05:23:39;20.10;99.90
39525;DHT22;25203;50.754;6.978;2023-08-12T05:25:40;20.10;99.90
39525;DHT22;25203;50.754;6.978;2023-08-12T05:27:41;20.00;99.90
39525;DHT22;25203;50.754;6.978;2023-08-12T05:29:41;20.00;99.90
39525;DHT22;25203;50.754;6.978;2023-08-12T05:31:42;20.00;99.90
39525;DHT22;25203;50.754;6.978;2023-08-12T05:33:43;20.00;99.90
39525;DHT22;25203;50.754;6.978;2023-08-12T05:35:47;20.00;99.90
39525;DHT22;25203;50.754;6.978;2023-08-12T05:37:47;20.10;99.90
39525;DHT22;25203;50.754;6.978;2023-08-12T05:39:48;20.10;99.90
39525;DHT22;25203;50.754;6.978;2023-08-12T05:41:49;20.00;99.90
39525;DHT22;25203;50.754;6.978;2023-08-12T05:43:49;19.90;99.90
39525;DHT22;25203;50.754;6.978;2023-08-12T05:45:50;19.90;99.90
39525;DHT22;25203;50.754;6.978;2023-08-12T05:47:51;19.80;99.90
39525;DHT22;25203;50.754;6.978;2023-08-12T05:49:51;19.70;99.90
39525;DHT22;25203;50.754;6.978;2023-08-12T05:51:52;19.60;99.90
39525;DHT22;25203;50.754;6.978;2023-08-12T05:53:52;19.50;99.90
39525;DHT22;25203;50.754;6.978;2023-08-12T05:55:53;19.50;99.90
39525;DHT22;25203;50.754;6.978;2023-08-12T05:57:53;19.40;99.90
39525;DHT22;25203;50.754;6.978;2023-08-12T05:59:54;19.40;99.90
39525;DHT22;25203;50.754;6.978;2023-08-12T06:01:55;19.40;99.90
39525;DHT22;25203;50.754;6.978;2023-08-12T06:03:55;19.30;99.90
39525;DHT22;25203;50.754;6.978;2023-08-12T06:05:56;19.30;99.90
39525;DHT22;25203;50.754;6.978;2023-08-12T06:07:57;19.20;99.90
39525;DHT22;25203;50.754;6.978;2023-08-12T06:09:57;19.10;99.90
39525;DHT22;25203;50.754;6.978;2023-08-12T06:11:58;19.10;99.90
39525;DHT22;25203;50.754;6.978;2023-08-12T06:13:58;18.90;99.90
39525;DHT22;25203;50.754;6.978;2023-08-12T06:15:59;18.90;99.90
39525;DHT22;25203;50.754;6.978;2023-08-12T06:18:01;18.80;99.90
39525;DHT22;25203;50.754;6.978;2023-08-12T06:20:02;18.70;99.90
39525;DHT22;25203;50.754;6.978;2023-08-12T06:22:03;18.70;99.90
39525;DHT22;25203;50.754;6.978;2023-08-12T06:24:04;18.60;99.90
39525;DHT22;25203;50.754;6.978;2023-08-12T06:26:04;18.60;99.90
39525;DHT22;25203;50.754;6.978;2023-08-12T06:28:05;18.60;99.90
39525;DHT22;25203;50.754;6.978;2023-08-12T06:30:06;18.60;99.90
39525;DHT22;25203;50.754;6.978;2023-08-12T06:32:07;18.60;99.90
39525;DHT22;25203;50.754;6.978;2023-08-12T06:34:08;18.60;99.90
39525;DHT22;25203;50.754;6.978;2023-08-12T06:36:08;18.60;99.90
39525;DHT22;25203;50.754;6.978;2023-08-12T06:38:09;18.60;99.90
39525;DHT22;25203;50.754;6.978;2023-08-12T06:40:10;18.70;99.90
39525;DHT22;25203;50.754;6.978;2023-08-12T06:42:11;18.70;99.90
39525;DHT22;25203;50.754;6.978;2023-08-12T06:44:11;18.80;99.90
39525;DHT22;25203;50.754;6.978;2023-08-12T06:46:12;18.80;99.90
39525;DHT22;25203;50.754;6.978;2023-08-12T06:48:13;18.80;99.90
39525;DHT22;25203;50.754;6.978;2023-08-12T06:50:13;18.90;99.90
39525;DHT22;25203;50.754;6.978;2023-08-12T06:52:14;18.90;99.90
39525;DHT22;25203;50.754;6.978;2023-08-12T06:54:16;19.00;99.90
39525;DHT22;25203;50.754;6.978;2023-08-12T06:56:17;19.10;99.90
39525;DHT22;25203;50.754;6.978;2023-08-12T06:58:17;19.10;99.90
39525;DHT22;25203;50.754;6.978;2023-08-12T07:00:18;19.20;99.90
39525;DHT22;25203;50.754;6.978;2023-08-12T07:02:18;19.20;99.90
39525;DHT22;25203;50.754;6.978;2023-08-12T07:04:19;19.20;99.90
39525;DHT22;25203;50.754;6.978;2023-08-12T07:06:20;19.30;99.90
39525;DHT22;25203;50.754;6.978;2023-08-12T07:08:20;19.30;99.90
39525;DHT22;25203;50.754;6.978;2023-08-12T07:10:21;19.40;99.90
39525;DHT22;25203;50.754;6.978;2023-08-12T07:12:21;19.50;99.90
39525;DHT22;25203;50.754;6.978;2023-08-12T07:14:22;19.50;99.90
39525;DHT22;25203;50.754;6.978;2023-08-12T07:16:23;19.60;99.90
39525;DHT22;25203;50.754;6.978;2023-08-12T07:18:23;19.60;99.90
39525;DHT22;25203;50.754;6.978;2023-08-12T07:20:25;19.70;99.90
39525;DHT22;25203;50.754;6.978;2023-08-12T07:22:25;19.70;99.90
39525;DHT22;25203;50.754;6.978;2023-08-12T07:24:26;19.80;99.90
39525;DHT22;25203;50.754;6.978;2023-08-12T07:26:26;19.80;99.90
39525;DHT22;25203;50.754;6.978;2023-08-12T07:28:27;19.90;99.90
39525;DHT22;25203;50.754;6.978;2023-08-12T07:30:28;19.80;99.90
39525;DHT22;25203;50.754;6.978;2023-08-12T07:32:28;19.80;99.90
39525;DHT22;25203;50.754;6.978;2023-08-12T07:34:29;19.90;99.90
39525;DHT22;25203;50.754;6.978;2023-08-12T07:36:30;20.10;99.90
39525;DHT22;25203;50.754;6.978;2023-08-12T07:38:30;20.20;99.90
39525;DHT22;25203;50.754;6.978;2023-08-12T07:40:31;20.20;99.90
39525;DHT22;25203;50.754;6.978;2023-08-12T07:42:31;20.20;99.90
39525;DHT22;25203;50.754;6.978;2023-08-12T07:44:32;20.30;99.90
39525;DHT22;25203;50.754;6.978;2023-08-12T07:46:33;20.30;99.90
39525;DHT22;25203;50.754;6.978;2023-08-12T07:48:33;20.50;99.90
39525;DHT22;25203;50.754;6.978;2023-08-12T07:50:35;20.60;99.90
39525;DHT22;25203;50.754;6.978;2023-08-12T07:52:35;20.70;99.90
39525;DHT22;25203;50.754;6.978;2023-08-12T07:54:36;20.80;99.90
39525;DHT22;25203;50.754;6.978;2023-08-12T07:56:36;21.00;99.90
39525;DHT22;25203;50.754;6.978;2023-08-12T07:58:37;21.10;99.90
39525;DHT22;25203;50.754;6.978;2023-08-12T08:00:38;21.10;99.90
39525;DHT22;25203;50.754;6.978;2023-08-12T08:02:39;21.10;99.90
39525;DHT22;25203;50.754;6.978;2023-08-12T08:04:40;21.00;99.90
39525;DHT22;25203;50.754;6.978;2023-08-12T08:06:40;21.00;99.90
39525;DHT22;25203;50.754;6.978;2023-08-12T08:08:41;21.20;99.90
39525;DHT22;25203;50.754;6.978;2023-08-12T08:10:41;21.50;99.90
39525;DHT22;25203;50.754;6.978;2023-08-12T08:12:42;21.70;99.90
39525;DHT22;25203;50.754;6.978;2023-08-12T08:14:43;21.90;99.90
39525;DHT22;25203;50.754;6.978;2023-08-12T08:16:43;21.90;99.90
39525;DHT22;25203;50.754;6.978;2023-08-12T08:18:44;21.80;99.90
39525;DHT22;25203;50.754;6.978;2023-08-12T08:20:44;21.60;99.90
39525;DHT22;25203;50.754;6.978;2023-08-12T08:22:45;21.50;99.90
39525;DHT22;25203;50.754;6.978;2023-08-12T08:24:47;21.40;99.90
39525;DHT22;25203;50.754;6.978;2023-08-12T08:26:48;21.40;99.90
39525;DHT22;25203;50.754;6.978;2023-08-12T08:28:48;21.40;99.90
39525;DHT22;25203;50.754;6.978;2023-08-12T08:30:49;21.40;99.90
39525;DHT22;25203;50.754;6.978;2023-08-12T08:32:49;21.40;99.90
39525;DHT22;25203;50.754;6.978;2023-08-12T08:34:50;21.20;99.90
39525;DHT22;25203;50.754;6.978;2023-08-12T08:36:50;21.20;99.90
39525;DHT22;25203;50.754;6.978;2023-08-12T08:38:51;21.20;99.90
39525;DHT22;25203;50.754;6.978;2023-08-12T08:40:52;21.30;99.90
39525;DHT22;25203;50.754;6.978;2023-08-12T08:42:53;21.40;99.90
39525;DHT22;25203;50.754;6.978;2023-08-12T08:44:55;21.60;99.90
39525;DHT22;25203;50.754;6.978;2023-08-12T08:46:59;21.80;99.90
39525;DHT22;25203;50.754;6.978;2023-08-12T08:49:00;22.10;99.90
39525;DHT22;25203;50.754;6.978;2023-08-12T08:51:01;22.30;99.90
39525;DHT22;25203;50.754;6.978;2023-08-12T08:53:05;22.40;99.90
39525;DHT22;25203;50.754;6.978;2023-08-12T08:55:06;22.50;99.90
39525;DHT22;25203;50.754;6.978;2023-08-12T08:57:08;22.60;99.90
39525;DHT22;25203;50.754;6.978;2023-08-12T08:59:09;22.80;99.90
39525;DHT22;25203;50.754;6.978;2023-08-12T09:01:10;23.00;99.90
39525;DHT22;25203;50.754;6.978;2023-08-12T09:03:12;23.20;99.90
39525;DHT22;25203;50.754;6.978;2023-08-12T09:05:15;23.50;99.90
39525;DHT22;25203;50.754;6.978;2023-08-12T09:07:15;23.60;99.90
39525;DHT22;25203;50.754;6.978;2023-08-12T09:09:16;23.40;99.90
39525;DHT22;25203;50.754;6.978;2023-08-12T09:11:19;23.10;99.90
39525;DHT22;25203;50.754;6.978;2023-08-12T09:13:20;22.80;99.90
39525;DHT22;25203;50.754;6.978;2023-08-12T09:15:20;22.50;99.90
39525;DHT22;25203;50.754;6.978;2023-08-12T09:17:21;22.20;99.90
39525;DHT22;25203;50.754;6.978;2023-08-12T09:19:22;22.00;99.90
39525;DHT22;25203;50.754;6.978;2023-08-12T09:21:23;22.00;99.90
39525;DHT22;25203;50.754;6.978;2023-08-12T09:23:26;21.90;99.90
39525;DHT22;25203;50.754;6.978;2023-08-12T09:25:27;21.90;99.90
39525;DHT22;25203;50.754;6.978;2023-08-12T09:27:31;22.00;99.90
39525;DHT22;25203;50.754;6.978;2023-08-12T09:29:33;22.10;99.90
39525;DHT22;25203;50.754;6.978;2023-08-12T09:31:34;22.30;99.90
39525;DHT22;25203;50.754;6.978;2023-08-12T09:33:39;22.40;99.90
39525;DHT22;25203;50.754;6.978;2023-08-12T09:35:41;22.50;99.90
39525;DHT22;25203;50.754;6.978;2023-08-12T09:37:42;22.50;99.90
39525;DHT22;25203;50.754;6.978;2023-08-12T09:39:44;22.60;99.90
39525;DHT22;25203;50.754;6.978;2023-08-12T09:41:46;22.50;99.90
39525;DHT22;25203;50.754;6.978;2023-08-12T09:43:46;22.40;99.90
39525;DHT22;25203;50.754;6.978;2023-08-12T09:45:47;22.40;99.90
39525;DHT22;25203;50.754;6.978;2023-08-12T09:47:48;22.60;99.90
39525;DHT22;25203;50.754;6.978;2023-08-12T09:49:49;23.20;99.90
39525;DHT22;25203;50.754;6.978;2023-08-12T09:51:51;23.60;99.90
39525;DHT22;25203;50.754;6.978;2023-08-12T09:53:52;23.80;99.90
39525;DHT22;25203;50.754;6.978;2023-08-12T09:55:53;23.90;99.90
39525;DHT22;25203;50.754;6.978;2023-08-12T09:57:56;24.00;99.90
39525;DHT22;25203;50.754;6.978;2023-08-12T09:59:58;23.80;99.90
39525;DHT22;25203;50.754;6.978;2023-08-12T10:02:00;23.80;99.90
39525;DHT22;25203;50.754;6.978;2023-08-12T10:04:06;23.60;99.90
39525;DHT22;25203;50.754;6.978;2023-08-12T10:06:09;23.50;99.90
39525;DHT22;25203;50.754;6.978;2023-08-12T10:08:10;23.40;99.90
39525;DHT22;25203;50.754;6.978;2023-08-12T10:10:12;23.30;99.90
39525;DHT22;25203;50.754;6.978;2023-08-12T10:12:14;23.40;99.90
39525;DHT22;25203;50.754;6.978;2023-08-12T10:14:15;23.50;99.90
39525;DHT22;25203;50.754;6.978;2023-08-12T10:16:17;23.80;99.90
39525;DHT22;25203;50.754;6.978;2023-08-12T10:18:18;24.30;99.90
39525;DHT22;25203;50.754;6.978;2023-08-12T10:20:22;24.80;99.90
39525;DHT22;25203;50.754;6.978;2023-08-12T10:22:26;25.20;99.90
39525;DHT22;25203;50.754;6.978;2023-08-12T10:24:27;25.10;99.90
39525;DHT22;25203;50.754;6.978;2023-08-12T10:26:28;24.90;99.90
39525;DHT22;25203;50.754;6.978;2023-08-12T10:28:30;24.80;99.90
39525;DHT22;25203;50.754;6.978;2023-08-12T10:30:37;24.70;99.90
39525;DHT22;25203;50.754;6.978;2023-08-12T10:32:40;24.70;99.90
39525;DHT22;25203;50.754;6.978;2023-08-12T10:34:40;24.70;99.90
39525;DHT22;25203;50.754;6.978;2023-08-12T10:36:41;24.80;99.90
39525;DHT22;25203;50.754;6.978;2023-08-12T10:38:43;25.10;99.90
39525;DHT22;25203;50.754;6.978;2023-08-12T10:40:44;25.30;99.90
39525;DHT22;25203;50.754;6.978;2023-08-12T10:42:47;25.70;99.90
39525;DHT22;25203;50.754;6.978;2023-08-12T10:44:51;25.70;99.90
39525;DHT22;25203;50.754;6.978;2023-08-12T10:46:53;25.50;99.90
39525;DHT22;25203;50.754;6.978;2023-08-12T10:49:08;25.20;99.90
39525;DHT22;25203;50.754;6.978;2023-08-12T10:51:08;24.90;99.90
39525;DHT22;25203;50.754;6.978;2023-08-12T10:55:26;24.80;99.90
39525;DHT22;25203;50.754;6.978;2023-08-12T10:57:36;24.70;99.90
39525;DHT22;25203;50.754;6.978;2023-08-12T11:01:47;24.30;99.90
39525;DHT22;25203;50.754;6.978;2023-08-12T11:03:48;24.10;99.90
39525;DHT22;25203;50.754;6.978;2023-08-12T11:05:49;23.90;99.90
39525;DHT22;25203;50.754;6.978;2023-08-12T11:08:00;23.70;99.90
39525;DHT22;25203;50.754;6.978;2023-08-12T11:10:11;23.60;99.90
39525;DHT22;25203;50.754;6.978;2023-08-12T11:12:17;23.50;99.90
39525;DHT22;25203;50.754;6.978;2023-08-12T11:14:18;23.50;99.90
39525;DHT22;25203;50.754;6.978;2023-08-12T11:16:31;23.40;99.90
39525;DHT22;25203;50.754;6.978;2023-08-12T11:18:34;23.50;99.90
39525;DHT22;25203;50.754;6.978;2023-08-12T11:20:36;23.60;99.90
39525;DHT22;25203;50.754;6.978;2023-08-12T11:22:43;23.70;99.90
39525;DHT22;25203;50.754;6.978;2023-08-12T11:24:44;23.90;99.90
39525;DHT22;25203;50.754;6.978;2023-08-12T11:26:46;24.10;99.90
39525;DHT22;25203;50.754;6.978;2023-08-12T11:28:47;24.10;99.90
39525;DHT22;25203;50.754;6.978;2023-08-12T11:30:47;24.20;99.90
39525;DHT22;25203;50.754;6.978;2023-08-12T11:32:50;24.40;99.90
39525;DHT22;25203;50.754;6.978;2023-08-12T11:34:51;24.70;99.90
39525;DHT22;25203;50.754;6.978;2023-08-12T11:36:51;24.90;99.90
39525;DHT22;25203;50.754;6.978;2023-08-12T11:38:52;25.00;99.90
39525;DHT22;25203;50.754;6.978;2023-08-12T11:40:53;25.40;99.90
39525;DHT22;25203;50.754;6.978;2023-08-12T11:42:54;25.90;99.90
39525;DHT22;25203;50.754;6.978;2023-08-12T11:44:55;26.10;99.90
39525;DHT22;25203;50.754;6.978;2023-08-12T11:46:56;25.90;99.90
39525;DHT22;25203;50.754;6.978;2023-08-12T11:48:56;25.90;99.90
39525;DHT22;25203;50.754;6.978;2023-08-12T11:50:57;25.90;99.90
39525;DHT22;25203;50.754;6.978;2023-08-12T11:52:58;26.20;99.90
39525;DHT22;25203;50.754;6.978;2023-08-12T11:54:59;26.40;99.90
39525;DHT22;25203;50.754;6.978;2023-08-12T11:57:00;26.30;99.90
39525;DHT22;25203;50.754;6.978;2023-08-12T11:59:01;26.10;99.90
39525;DHT22;25203;50.754;6.978;2023-08-12T12:01:02;26.20;99.90
39525;DHT22;25203;50.754;6.978;2023-08-12T12:03:03;26.30;99.90
39525;DHT22;25203;50.754;6.978;2023-08-12T12:05:13;26.70;99.90
39525;DHT22;25203;50.754;6.978;2023-08-12T12:07:22;27.30;99.90
39525;DHT22;25203;50.754;6.978;2023-08-12T12:09:23;27.30;99.90
39525;DHT22;25203;50.754;6.978;2023-08-12T12:11:26;26.90;99.90
39525;DHT22;25203;50.754;6.978;2023-08-12T12:13:27;26.80;99.90
39525;DHT22;25203;50.754;6.978;2023-08-12T12:15:27;26.70;99.90
39525;DHT22;25203;50.754;6.978;2023-08-12T12:17:28;26.40;99.90
39525;DHT22;25203;50.754;6.978;2023-08-12T12:19:28;25.90;99.90
39525;DHT22;25203;50.754;6.978;2023-08-12T12:21:29;25.40;99.90
39525;DHT22;25203;50.754;6.978;2023-08-12T12:23:31;25.10;99.90
39525;DHT22;25203;50.754;6.978;2023-08-12T12:25:31;24.60;99.90
39525;DHT22;25203;50.754;6.978;2023-08-12T12:27:32;24.50;99.90
39525;DHT22;25203;50.754;6.978;2023-08-12T12:29:33;24.40;99.90
39525;DHT22;25203;50.754;6.978;2023-08-12T12:31:35;24.40;99.90
39525;DHT22;25203;50.754;6.978;2023-08-12T12:33:36;24.40;99.90
39525;DHT22;25203;50.754;6.978;2023-08-12T12:35:37;24.40;99.90
39525;DHT22;25203;50.754;6.978;2023-08-12T12:37:38;24.40;99.90
39525;DHT22;25203;50.754;6.978;2023-08-12T12:39:39;24.40;99.90
39525;DHT22;25203;50.754;6.978;2023-08-12T12:41:40;24.50;99.90
39525;DHT22;25203;50.754;6.978;2023-08-12T12:43:40;24.70;99.90
39525;DHT22;25203;50.754;6.978;2023-08-12T12:45:41;24.60;99.90
39525;DHT22;25203;50.754;6.978;2023-08-12T12:47:42;24.80;99.90
39525;DHT22;25203;50.754;6.978;2023-08-12T12:49:42;24.80;99.90
39525;DHT22;25203;50.754;6.978;2023-08-12T12:51:43;24.90;99.90
39525;DHT22;25203;50.754;6.978;2023-08-12T12:53:44;24.80;99.90
39525;DHT22;25203;50.754;6.978;2023-08-12T12:55:44;24.80;99.90